Time;durP1;ratioP1;P1;durP2;ratioP2;P2;SDS_P1;SDS_P2;PMS_P1;PMS_P2;Temp;Humidity;BMP_temperature;BMP_pressure;BME280_temperature;BME280_humidity;BME280_pressure;Samples;Min_cycle;Max_cycle;Signal;HPM_P1;HPM_P2
2022/10/04 00:01:54;;;;;;;1.22;1.00;;;;;;;9.36;73.38;99292.65;1704399;82;21505;-73
2022/10/04 00:04:41;;;;;;;1.12;0.85;;;;;;;9.33;73.36;99302.62;1737149;82;20999;-73
2022/10/04 00:07:21;;;;;;;1.60;0.85;;;;;;;9.30;73.37;99298.47;1700265;82;20964;-80
2022/10/04 00:09:58;;;;;;;0.60;0.60;;;;;;;9.27;73.25;99296.12;1717342;82;22688;-73
2022/10/04 00:12:29;;;;;;;2.83;0.50;;;;;;;9.25;73.00;99309.06;1674472;84;21066;-73
2022/10/04 00:15:02;;;;;;;0.98;0.50;;;;;;;9.20;72.34;99310.81;1678724;85;21054;-73
2022/10/04 00:17:36;;;;;;;1.15;0.65;;;;;;;9.17;71.95;99309.78;1685737;83;21470;-72
2022/10/04 00:20:06;;;;;;;0.78;0.50;;;;;;;9.14;71.47;99304.77;1711533;82;21007;-72
2022/10/04 00:22:32;;;;;;;1.17;0.62;;;;;;;9.10;71.32;99310.81;1689504;83;22455;-73
2022/10/04 00:25:12;;;;;;;2.22;0.50;;;;;;;9.07;71.25;99303.66;1719676;82;21078;-72
2022/10/04 00:27:42;;;;;;;0.60;0.50;;;;;;;9.07;71.09;99306.29;1719417;83;21446;-73
2022/10/04 00:30:22;;;;;;;0.82;0.68;;;;;;;9.03;70.96;99306.23;1710001;82;21113;-73
2022/10/04 00:33:02;;;;;;;1.37;0.70;;;;;;;9.01;70.97;99305.05;1673304;83;21020;-72
2022/10/04 00:35:35;;;;;;;1.05;0.40;;;;;;;8.99;70.91;99312.27;1713893;82;21614;-73
2022/10/04 00:38:15;;;;;;;0.98;0.62;;;;;;;8.97;70.92;99312.03;1712598;82;21050;-73
2022/10/04 00:40:54;;;;;;;2.58;0.78;;;;;;;8.94;70.89;99315.78;1706188;82;21113;-72
2022/10/04 00:43:34;;;;;;;1.00;0.60;;;;;;;8.93;70.91;99318.56;1707402;82;21056;-72
2022/10/04 00:46:06;;;;;;;1.87;0.72;;;;;;;8.90;70.90;99319.67;1698240;82;20987;-73
2022/10/04 00:48:40;;;;;;;0.70;0.50;;;;;;;8.87;70.92;99325.19;1714152;83;21853;-73
2022/10/04 00:51:31;;;;;;;;;;;;;;;8.86;70.98;99320.90;1715392;82;21047;-72
2022/10/04 00:54:04;;;;;;;1.62;0.68;;;;;;;8.86;70.95;99328.80;1692674;83;20143;-73
2022/10/04 00:56:37;;;;;;;1.30;0.75;;;;;;;8.84;70.98;99328.11;1698104;83;21073;-73
2022/10/04 00:59:26;;;;;;;1.45;0.50;;;;;;;8.81;71.01;99327.91;1705191;82;21011;-72
2022/10/04 01:02:00;;;;;;;1.62;0.60;;;;;;;8.80;71.02;99329.36;1701762;82;21780;-72
2022/10/04 01:04:41;;;;;;;0.68;0.50;;;;;;;8.77;71.13;99325.66;1688774;83;21061;-72
2022/10/04 01:07:09;;;;;;;1.07;0.72;;;;;;;8.77;71.23;99328.30;1686433;85;21150;-73
2022/10/04 01:09:46;;;;;;;1.62;0.70;;;;;;;8.78;71.27;99334.77;1698359;83;21392;-72
2022/10/04 01:12:25;;;;;;;1.00;0.60;;;;;;;8.78;71.29;99332.59;1669970;84;21022;-72
2022/10/04 01:15:24;;;;;;;0.70;0.60;;;;;;;8.77;71.25;99331.76;1688274;83;21876;-72
2022/10/04 01:18:17;;;;;;;1.92;0.60;;;;;;;8.80;71.23;99335.95;1696322;83;20956;-72
2022/10/04 01:21:09;;;;;;;0.78;0.65;;;;;;;8.80;71.27;99330.19;1736333;82;21004;-71
2022/10/04 01:23:43;;;;;;;1.98;0.65;;;;;;;8.81;71.28;99332.34;1716790;83;21023;-72
2022/10/04 01:26:36;;;;;;;3.15;0.80;;;;;;;8.82;71.21;99334.00;1715758;81;21041;-73
2022/10/04 01:29:25;;;;;;;1.43;0.87;;;;;;;8.81;71.21;99333.66;1713324;82;21829;-72
2022/10/04 01:31:54;;;;;;;3.30;1.05;;;;;;;8.81;71.19;99331.02;1700196;82;21063;-72
2022/10/04 01:34:24;;;;;;;1.07;0.60;;;;;;;8.81;71.16;99332.34;1694790;83;21383;-72
2022/10/04 01:36:59;;;;;;;1.62;0.88;;;;;;;8.81;71.10;99329.70;1658067;85;21061;-71
2022/10/04 01:39:27;;;;;;;1.32;0.70;;;;;;;8.81;71.01;99337.13;1688255;83;21014;-72
2022/10/04 01:42:08;;;;;;;0.88;0.62;;;;;;;8.81;71.04;99332.34;1711925;82;21800;-72
2022/10/04 01:44:54;;;;;;;0.68;0.60;;;;;;;8.82;70.95;99333.52;1697127;82;21027;-72
2022/10/04 01:47:33;;;;;;;1.57;0.70;;;;;;;8.82;70.87;99341.41;1695750;83;21087;-72
2022/10/04 01:50:04;;;;;;;1.72;0.60;;;;;;;8.83;70.79;99343.08;1712782;82;21418;-72
2022/10/04 01:52:42;;;;;;;1.15;0.60;;;;;;;8.82;70.73;99347.17;1714049;82;20971;-73
2022/10/04 01:55:16;;;;;;;1.62;0.70;;;;;;;8.82;70.61;99344.05;1700469;82;21939;-72
2022/10/04 01:57:55;;;;;;;1.77;0.90;;;;;;;8.83;70.58;99347.52;1700495;82;20999;-71
2022/10/04 02:00:23;;;;;;;1.40;0.72;;;;;;;8.84;70.55;99353.13;1711110;82;21496;-73
2022/10/04 02:02:57;;;;;;;3.20;0.60;;;;;;;8.83;70.41;99352.78;1697653;82;21118;-71
2022/10/04 02:05:37;;;;;;;0.88;0.50;;;;;;;8.84;70.39;99349.17;1716869;82;21007;-71
2022/10/04 02:08:12;;;;;;;2.15;0.60;;;;;;;8.84;70.24;99349.17;1716279;82;22542;-73
2022/10/04 02:10:39;;;;;;;0.75;0.55;;;;;;;8.84;70.29;99351.80;1713342;82;21039;-73
2022/10/04 02:13:17;;;;;;;0.68;0.60;;;;;;;8.82;70.24;99358.53;1726744;81;21373;-73
2022/10/04 02:15:44;;;;;;;2.20;0.60;;;;;;;8.82;70.18;99360.33;1716851;82;21004;-74
2022/10/04 02:18:12;;;;;;;0.70;0.65;;;;;;;8.82;70.20;99364.28;1724942;82;21047;-73
2022/10/04 02:20:39;;;;;;;0.62;0.60;;;;;;;8.80;70.10;99360.47;1691364;83;22543;-73
2022/10/04 02:23:06;;;;;;;1.45;0.70;;;;;;;8.80;69.98;99367.54;1715947;81;21016;-73
2022/10/04 02:25:32;;;;;;;1.30;0.80;;;;;;;8.80;69.95;99369.69;1682732;83;21054;-73
2022/10/04 02:27:59;;;;;;;0.60;0.60;;;;;;;8.82;69.94;99372.18;1687851;83;20964;-73
2022/10/04 02:30:25;;;;;;;0.98;0.60;;;;;;;8.84;69.93;99373.70;1734088;80;21015;-73
2022/10/04 02:33:03;;;;;;;1.60;0.62;;;;;;;8.87;69.95;99377.86;1711025;82;21928;-73
2022/10/04 02:35:35;;;;;;;1.42;0.70;;;;;;;8.85;69.90;99370.58;1713077;81;21357;-73
2022/10/04 02:38:22;;;;;;;2.72;0.70;;;;;;;8.86;69.88;99376.20;1709238;83;21051;-73
2022/10/04 02:41:00;;;;;;;2.45;0.53;;;;;;;8.88;69.86;99375.11;1678717;83;21001;-72
2022/10/04 02:43:43;;;;;;;2.55;1.27;;;;;;;8.87;69.82;99366.84;1690535;84;21356;-73
2022/10/04 02:46:21;;;;;;;0.78;0.60;;;;;;;8.89;69.82;99374.14;1686843;83;21960;-72
2022/10/04 02:48:51;;;;;;;0.65;0.50;;;;;;;8.92;69.80;99380.10;1688827;83;22192;-71
2022/10/04 02:51:33;;;;;;;2.37;0.72;;;;;;;8.93;69.75;99376.50;1691693;83;21385;-71
2022/10/04 02:54:05;;;;;;;0.90;0.60;;;;;;;8.92;69.70;99377.47;1689062;83;20950;-72
2022/10/04 02:56:33;;;;;;;0.70;0.60;;;;;;;8.92;69.66;99374.34;1704990;82;21030;-73
2022/10/04 02:59:02;;;;;;;0.65;0.65;;;;;;;8.94;69.65;99374.20;1718704;81;21950;-73
2022/10/04 03:01:57;;;;;;;1.00;0.70;;;;;;;8.92;69.65;99379.61;1667908;83;21563;-72
2022/10/04 03:04:26;;;;;;;;;;;;;;;8.93;69.58;99378.64;1704666;81;21027;-72
2022/10/04 03:06:54;;;;;;;2.08;0.70;;;;;;;8.93;69.60;99377.33;1715770;82;20454;-72
2022/10/04 03:09:21;;;;;;;1.85;0.85;;;;;;;8.93;69.58;99378.64;1679801;83;21120;-73
2022/10/04 03:11:49;;;;;;;0.72;0.62;;;;;;;8.94;69.57;99384.26;1686270;83;22591;-75
2022/10/04 03:14:22;;;;;;;1.10;0.80;;;;;;;8.96;69.48;99379.68;1686298;83;21019;-73
2022/10/04 03:16:52;;;;;;;1.90;0.70;;;;;;;8.97;69.56;99376.08;1714454;82;21122;-73
2022/10/04 03:19:23;;;;;;;3.10;0.80;;;;;;;8.95;69.77;99370.61;1702919;82;21501;-72
2022/10/04 03:21:52;;;;;;;3.33;0.82;;;;;;;8.98;69.59;99383.03;1687408;83;20944;-75
2022/10/04 03:24:38;;;;;;;1.05;0.80;;;;;;;8.96;69.52;99383.63;1714596;82;22553;-75
2022/10/04 03:27:06;;;;;;;0.88;0.80;;;;;;;8.96;69.55;99387.58;1685555;83;21034;-72
2022/10/04 03:29:33;;;;;;;2.58;1.00;;;;;;;8.97;69.60;99387.09;1711436;82;21007;-72
2022/10/04 03:32:02;;;;;;;1.65;0.80;;;;;;;8.96;69.65;99391.53;1686063;83;21072;-74
2022/10/04 03:34:37;;;;;;;2.45;0.88;;;;;;;8.97;69.65;99400.27;1702426;82;21023;-73
2022/10/04 03:37:11;;;;;;;1.07;0.80;;;;;;;8.96;69.66;99398.11;1705834;82;22183;-73
2022/10/04 03:39:43;;;;;;;3.25;0.90;;;;;;;8.97;69.69;99398.46;1710564;82;21634;-73
2022/10/04 03:42:19;;;;;;;2.33;0.95;;;;;;;8.97;69.78;99399.78;1711435;82;21071;-72
2022/10/04 03:44:48;;;;;;;0.88;0.72;;;;;;;8.97;69.80;99393.68;1712782;82;21044;-74
2022/10/04 03:47:20;;;;;;;1.30;0.80;;;;;;;8.98;69.91;99401.95;1680670;83;21137;-74
2022/10/04 03:49:46;;;;;;;2.95;0.80;;;;;;;8.97;69.91;99398.46;1683982;83;21905;-74
2022/10/04 03:52:22;;;;;;;1.27;0.90;;;;;;;8.97;69.90;99400.27;1711446;81;21026;-76
2022/10/04 03:54:51;;;;;;;0.70;0.70;;;;;;;8.96;69.94;99406.02;1691977;83;20964;-73
2022/10/04 03:57:18;;;;;;;2.25;0.80;;;;;;;8.98;70.00;99405.91;1705778;82;21007;-73
2022/10/04 03:59:45;;;;;;;2.02;0.90;;;;;;;8.97;70.05;99404.22;1737124;80;20999;-74
2022/10/04 04:02:26;;;;;;;0.80;0.70;;;;;;;8.97;70.14;99412.12;1682789;83;21927;-73
2022/10/04 04:05:21;;;;;;;1.17;0.90;;;;;;;8.95;70.21;99410.94;1702410;82;21512;-73
2022/10/04 04:07:57;;;;;;;0.80;0.80;;;;;;;8.95;70.28;99417.52;1692901;83;25190;-73
2022/10/04 04:10:27;;;;;;;2.40;0.70;;;;;;;8.94;70.33;99414.55;1712882;82;21004;-74
2022/10/04 04:13:13;;;;;;;1.30;0.60;;;;;;;8.95;70.41;99421.47;1674750;83;21503;-73
2022/10/04 04:15:44;;;;;;;0.98;0.75;;;;;;;8.94;70.42;99415.86;1684752;83;22593;-73
2022/10/04 04:18:22;;;;;;;1.57;0.80;;;;;;;8.95;70.53;99420.16;1697929;82;20962;-73
2022/10/04 04:20:51;;;;;;;1.42;0.90;;;;;;;8.97;70.57;99426.60;1719494;81;21140;-73
2022/10/04 04:23:33;;;;;;;1.07;0.98;;;;;;;8.97;70.62;99424.80;1713038;83;21442;-74
2022/10/04 04:26:24;;;;;;;3.80;1.10;;;;;;;8.98;70.71;99433.08;1692624;84;20842;-73
2022/10/04 04:28:54;;;;;;;2.02;1.20;;;;;;;8.99;70.72;99426.01;1689550;83;21520;-73
2022/10/04 04:31:29;;;;;;;1.85;1.00;;;;;;;9.02;70.81;99434.95;1713852;81;21469;-74
2022/10/04 04:34:03;;;;;;;1.30;0.85;;;;;;;9.01;70.83;99434.11;1700887;82;21058;-74
2022/10/04 04:36:32;;;;;;;1.35;1.00;;;;;;;9.04;70.86;99435.64;1716728;81;20967;-76
2022/10/04 04:39:33;;;;;;;2.02;1.10;;;;;;;9.07;70.88;99443.27;1690601;81;21102;-74
2022/10/04 04:42:04;;;;;;;1.82;1.05;;;;;;;9.08;70.95;99446.27;1707982;81;22003;-73
2022/10/04 04:44:31;;;;;;;2.52;0.90;;;;;;;9.10;70.94;99448.28;1705141;81;21043;-73
2022/10/04 04:46:59;;;;;;;2.85;1.00;;;;;;;9.13;70.94;99448.00;1721508;81;21160;-72
2022/10/04 04:49:28;;;;;;;2.12;1.57;;;;;;;9.16;70.96;99451.19;1729131;81;21105;-73
2022/10/04 04:51:56;;;;;;;2.52;1.00;;;;;;;9.20;70.99;99456.20;1721215;81;21122;-72
2022/10/04 04:54:25;;;;;;;2.65;1.12;;;;;;;9.21;70.91;99452.11;1719905;81;21921;-72
2022/10/04 04:56:53;;;;;;;1.85;1.30;;;;;;;9.23;70.97;99459.39;1679053;83;21066;-72
2022/10/04 04:59:21;;;;;;;2.27;1.20;;;;;;;9.27;70.93;99459.98;1715671;81;20983;-72
2022/10/04 05:01:47;;;;;;;4.85;1.22;;;;;;;9.29;70.93;99468.09;1720031;81;20979;-72
2022/10/04 05:04:20;;;;;;;5.75;1.55;;;;;;;9.32;70.84;99473.56;1721500;81;21011;-73
2022/10/04 05:07:04;;;;;;;2.52;1.20;;;;;;;9.32;70.80;99477.03;1716587;81;21848;-74
2022/10/04 05:09:35;;;;;;;2.30;1.57;;;;;;;9.37;70.88;99477.95;1710940;81;20951;-72
2022/10/04 05:12:19;;;;;;;3.75;1.40;;;;;;;9.40;70.76;99481.63;1714729;81;21020;-73
2022/10/04 05:14:51;;;;;;;3.42;1.30;;;;;;;9.43;70.77;99483.49;1696404;83;21059;-72
2022/10/04 05:17:24;;;;;;;1.32;0.90;;;;;;;9.48;70.85;99488.38;1720761;81;20935;-72
2022/10/04 05:19:52;;;;;;;1.32;1.12;;;;;;;9.51;70.84;99489.89;1682943;83;25503;-73
2022/10/04 05:22:21;;;;;;;3.83;1.20;;;;;;;9.54;70.79;99494.40;1680563;82;21066;-73
2022/10/04 05:24:53;;;;;;;2.75;1.32;;;;;;;9.57;70.63;99495.95;1688680;82;20988;-74
2022/10/04 05:27:43;;;;;;;1.90;1.30;;;;;;;9.60;70.60;99497.81;1724239;82;20976;-72
2022/10/04 05:30:40;;;;;;;1.98;1.25;;;;;;;9.66;70.57;99508.31;1694531;83;21063;-72
2022/10/04 05:33:10;;;;;;;3.42;1.50;;;;;;;9.70;70.34;99509.69;1685323;83;21812;-76
2022/10/04 05:36:13;;;;;;;3.42;1.50;;;;;;;9.73;70.37;99508.92;1715445;82;20951;-73
2022/10/04 05:39:05;;;;;;;2.50;1.60;;;;;;;9.78;70.33;99508.52;1713094;82;21011;-72
2022/10/04 05:41:54;;;;;;;2.72;1.50;;;;;;;9.82;70.23;99520.45;1687758;83;21058;-72
2022/10/04 05:44:30;;;;;;;1.55;1.17;;;;;;;9.86;70.15;99515.75;1706785;82;21020;-72
2022/10/04 05:46:59;;;;;;;2.17;1.32;;;;;;;9.89;69.95;99521.58;1713449;82;21825;-74
2022/10/04 05:49:33;;;;;;;2.20;1.45;;;;;;;9.91;69.80;99525.39;1687677;83;21012;-73
2022/10/04 05:52:24;;;;;;;3.70;1.40;;;;;;;9.93;69.72;99524.27;1690209;83;21043;-74
2022/10/04 05:55:41;;;;;;;4.12;2.02;;;;;;;9.99;69.63;99536.09;1671456;84;21034;-73
2022/10/04 05:58:50;;;;;;;4.30;1.60;;;;;;;10.00;69.55;99535.11;1654421;85;21489;-73
2022/10/04 06:01:34;;;;;;;1.50;1.20;;;;;;;10.02;69.36;99539.76;1686077;83;21925;-73
2022/10/04 06:04:23;;;;;;;3.33;1.50;;;;;;;10.04;69.31;99536.03;1683321;83;20893;-72
2022/10/04 06:07:20;;;;;;;2.98;1.40;;;;;;;10.08;69.34;99541.85;1664307;84;21525;-73
2022/10/04 06:10:08;;;;;;;2.30;1.37;;;;;;;10.12;69.34;99546.36;1684846;83;21043;-75
2022/10/04 06:12:59;;;;;;;2.67;1.30;;;;;;;10.16;69.35;99551.72;1683631;83;21043;-74
2022/10/04 06:15:51;;;;;;;2.52;1.50;;;;;;;10.20;69.29;99560.52;1684661;83;21765;-75
2022/10/04 06:18:45;;;;;;;2.90;1.57;;;;;;;10.25;69.15;99571.55;1682214;83;21058;-74
2022/10/04 06:21:30;;;;;;;3.83;1.45;;;;;;;10.29;68.99;99583.96;1680895;83;22168;-75
2022/10/04 06:24:10;;;;;;;2.85;1.30;;;;;;;10.32;68.66;99575.27;1718629;82;21547;-78
2022/10/04 06:26:46;;;;;;;1.77;1.20;;;;;;;10.37;68.58;99581.95;1706383;82;21001;-72
2022/10/04 06:29:23;;;;;;;2.30;1.40;;;;;;;10.39;68.30;99580.83;1708461;82;21899;-74
2022/10/04 06:32:28;;;;;;;2.40;1.60;;;;;;;10.42;68.27;99581.03;1725973;81;21077;-73
2022/10/04 06:35:15;;;;;;;3.58;1.50;;;;;;;10.47;68.23;99597.30;1636498;83;21069;-73
2022/10/04 06:38:06;;;;;;;1.52;1.22;;;;;;;10.51;67.95;99590.27;1727966;82;21071;-74
2022/10/04 06:40:58;;;;;;;2.75;1.20;;;;;;;10.57;67.79;99591.52;1683788;85;21122;-74
2022/10/04 06:44:12;;;;;;;2.73;1.50;;;;;;;10.62;67.47;99587.16;1702311;82;21789;-76
2022/10/04 06:46:52;;;;;;;2.17;1.22;;;;;;;10.68;67.71;99598.45;1712731;82;20960;-73
2022/10/04 06:49:42;;;;;;;3.12;1.15;;;;;;;10.77;67.60;99600.25;1688132;83;21011;-73
2022/10/04 06:52:24;;;;;;;2.08;1.30;;;;;;;10.81;67.08;99603.80;1718393;82;21050;-74
2022/10/04 06:55:19;;;;;;;3.40;2.00;;;;;;;10.82;66.79;99604.14;1687268;83;21096;-75
2022/10/04 06:58:25;;;;;;;3.17;1.47;;;;;;;10.84;66.59;99607.47;1691886;83;21819;-74
2022/10/04 07:01:16;;;;;;;5.03;1.67;;;;;;;10.85;66.59;99613.59;1691073;83;21031;-75
2022/10/04 07:04:15;;;;;;;2.45;1.30;;;;;;;10.85;66.66;99618.38;1674443;83;21055;-75
2022/10/04 07:07:26;;;;;;;5.37;1.65;;;;;;;10.81;66.54;99623.61;1717325;82;21052;-76
2022/10/04 07:10:18;;;;;;;4.05;1.40;;;;;;;10.79;66.73;99633.46;1689805;82;21019;-75
2022/10/04 07:13:10;;;;;;;4.58;1.77;;;;;;;10.77;66.87;99636.73;1713795;82;21970;-78
2022/10/04 07:15:55;;;;;;;2.83;1.50;;;;;;;10.76;66.93;99638.20;1677965;82;20975;-71
2022/10/04 07:18:28;;;;;;;2.12;1.60;;;;;;;10.76;67.08;99643.00;1715266;82;21099;-71
2022/10/04 07:21:04;;;;;;;2.02;1.30;;;;;;;10.77;66.96;99645.16;1698482;83;21034;-71
2022/10/04 07:23:35;;;;;;;2.77;1.20;;;;;;;10.78;66.93;99650.78;1727474;82;21079;-71
2022/10/04 07:26:06;;;;;;;1.57;1.05;;;;;;;10.76;66.85;99646.12;1713922;82;21832;-73
2022/10/04 07:31:30;;;;;;;2.80;1.20;;;;;;;10.78;66.95;99654.25;1713018;83;21061;-75
2022/10/04 07:34:02;;;;;;;1.12;0.80;;;;;;;10.77;66.92;99649.95;1688888;83;21711;-75
2022/10/04 07:36:46;;;;;;;1.85;1.10;;;;;;;10.74;66.97;99658.16;1714777;82;22164;-74
2022/10/04 07:39:22;;;;;;;2.00;1.05;;;;;;;10.74;67.01;99663.94;1716168;82;22593;-75
2022/10/04 07:42:14;;;;;;;1.00;0.80;;;;;;;10.72;67.18;99662.76;1717702;82;21061;-72
2022/10/04 07:44:44;;;;;;;2.72;1.00;;;;;;;10.72;67.12;99667.20;1713771;82;20948;-74
2022/10/04 07:47:26;;;;;;;2.55;0.85;;;;;;;10.71;67.40;99668.16;1708520;82;20983;-73
2022/10/04 07:49:54;;;;;;;1.80;1.30;;;;;;;10.68;67.69;99669.77;1718742;82;21039;-72
2022/10/04 07:52:47;;;;;;;2.25;1.10;;;;;;;10.65;68.25;99676.66;1674657;84;22635;-71
2022/10/04 07:55:38;;;;;;;1.70;1.00;;;;;;;10.62;68.50;99673.81;1718246;82;21056;-74
2022/10/04 07:58:38;;;;;;;1.30;1.00;;;;;;;10.60;69.05;99689.77;1695531;83;33194;-74
2022/10/04 08:01:32;;;;;;;1.37;1.00;;;;;;;10.59;69.44;99693.88;1718004;82;21192;-74
2022/10/04 08:04:30;;;;;;;3.08;1.20;;;;;;;10.59;70.08;99711.04;1719511;82;21042;-76
2022/10/04 08:07:00;;;;;;;2.08;0.80;;;;;;;10.50;71.05;99723.75;1696350;84;22222;-76
2022/10/04 08:09:39;;;;;;;0.90;0.50;;;;;;;10.36;70.90;99728.11;1740215;82;21046;-74
2022/10/04 08:12:24;;;;;;;0.45;0.40;;;;;;;10.21;70.86;99723.66;1725909;82;21469;-77
2022/10/04 08:15:28;;;;;;;0.65;0.40;;;;;;;10.03;70.76;99724.30;1718758;82;21653;-76
2022/10/04 08:18:44;;;;;;;0.40;0.40;;;;;;;9.92;71.01;99727.53;1691014;82;21134;-73
2022/10/04 08:21:22;;;;;;;1.02;0.45;;;;;;;9.82;71.04;99727.48;1714822;82;21458;-73
2022/10/04 08:24:17;;;;;;;1.17;0.60;;;;;;;9.77;72.00;99733.66;1717669;82;21407;-72
2022/10/04 08:27:23;;;;;;;1.12;0.82;;;;;;;9.80;72.42;99734.70;1731059;82;21010;-73
2022/10/04 08:30:13;;;;;;;5.72;1.32;;;;;;;9.87;72.48;99737.66;1687921;82;21662;-74
2022/10/04 08:33:00;;;;;;;2.52;1.20;;;;;;;9.84;72.80;99733.46;1707044;82;20987;-73
2022/10/04 08:35:35;;;;;;;1.65;1.00;;;;;;;9.89;72.98;99740.99;1712101;82;21939;-73
2022/10/04 08:38:24;;;;;;;1.65;1.00;;;;;;;9.90;73.09;99741.34;1709160;82;21115;-73
2022/10/04 08:41:47;;;;;;;0.93;0.80;;;;;;;9.91;73.39;99732.45;1716570;82;21086;-72
2022/10/04 08:44:44;;;;;;;1.07;0.80;;;;;;;10.01;73.62;99742.56;1705103;82;21569;-73
2022/10/04 08:47:58;;;;;;;2.58;0.80;;;;;;;10.10;73.67;99741.76;1715863;82;20989;-72
2022/10/04 08:50:51;;;;;;;1.55;0.90;;;;;;;10.17;73.71;99743.38;1712767;82;21927;-76
2022/10/04 08:54:05;;;;;;;1.70;0.90;;;;;;;10.19;73.60;99746.23;1720495;82;21016;-75
2022/10/04 08:57:13;;;;;;;1.30;0.85;;;;;;;10.22;73.85;99745.16;1711853;82;21099;-73
2022/10/04 09:00:19;;;;;;;1.70;1.00;;;;;;;10.24;73.68;99748.03;1713551;82;20981;-73
2022/10/04 09:03:09;;;;;;;2.87;1.67;;;;;;;10.37;73.75;99750.90;1707548;82;21019;-75
2022/10/04 09:06:27;;;;;;;2.12;1.82;;;;;;;10.45;73.72;99756.34;1718666;82;21635;-74
2022/10/04 09:09:20;;;;;;;6.62;5.15;;;;;;;10.53;73.33;99757.82;1729814;81;21011;-74
2022/10/04 09:12:20;;;;;;;6.33;4.72;;;;;;;10.65;73.40;99767.28;1721778;82;20988;-74
2022/10/04 09:15:20;;;;;;;2.52;1.70;;;;;;;10.78;72.89;99771.80;1722031;82;21533;-73
2022/10/04 09:18:10;;;;;;;3.98;2.10;;;;;;;10.89;72.72;99774.30;1688402;83;21024;-72
2022/10/04 09:20:49;;;;;;;4.03;2.60;;;;;;;10.97;72.06;99774.94;1637079;83;22328;-74
2022/10/04 09:23:45;;;;;;;2.17;1.00;;;;;;;11.03;71.78;99776.20;1660360;84;21021;-74
2022/10/04 09:26:23;;;;;;;1.35;1.10;;;;;;;11.11;71.58;99779.83;1654280;84;21369;-73
2022/10/04 09:29:21;;;;;;;2.10;1.20;;;;;;;11.13;70.95;99785.80;1684551;83;21502;-73
2022/10/04 09:32:20;;;;;;;1.47;1.10;;;;;;;11.15;70.63;99779.05;1690019;83;21477;-74
2022/10/04 09:35:25;;;;;;;1.42;1.17;;;;;;;11.14;70.40;99786.63;1690412;83;21888;-71
2022/10/04 09:38:19;;;;;;;2.12;1.30;;;;;;;11.15;70.26;99785.66;1638338;84;21127;-72
2022/10/04 09:41:03;;;;;;;1.40;1.10;;;;;;;11.20;69.87;99794.02;1680915;84;21070;-71
2022/10/04 09:43:59;;;;;;;1.45;1.00;;;;;;;11.24;69.36;99805.13;1712214;83;21098;-73
2022/10/04 09:47:23;;;;;;;1.80;1.00;;;;;;;11.21;68.86;99790.39;1663126;84;21585;-72
2022/10/04 09:50:36;;;;;;;1.57;1.00;;;;;;;11.17;69.09;99795.59;1632539;85;21861;-72
2022/10/04 09:53:23;;;;;;;2.70;1.02;;;;;;;11.12;69.28;99799.99;1693882;82;20975;-71
2022/10/04 09:56:13;;;;;;;3.45;1.40;;;;;;;11.07;69.23;99806.66;1713040;83;21144;-73
2022/10/04 09:59:20;;;;;;;1.37;0.90;;;;;;;10.99;69.31;99809.98;1661337;84;21502;-72
2022/10/04 10:02:07;;;;;;;1.85;1.00;;;;;;;10.93;69.58;99815.84;1665996;83;21269;-74
2022/10/04 10:04:41;;;;;;;2.00;1.07;;;;;;;10.88;69.82;99806.16;1661491;84;21760;-74
2022/10/04 10:07:47;;;;;;;2.47;1.07;;;;;;;10.94;70.18;99810.90;1629328;85;21160;-73
2022/10/04 10:14:20;;;;;;;2.62;1.20;;;;;;;11.18;70.28;99813.95;1687431;83;21137;-74
2022/10/04 10:17:14;;;;;;;3.25;0.90;;;;;;;11.37;70.37;99809.14;1663865;84;21082;-75
2022/10/04 10:20:38;;;;;;;2.92;0.90;;;;;;;11.66;69.82;99809.10;1666072;84;21946;-77
2022/10/04 10:23:26;;;;;;;2.20;1.30;;;;;;;11.85;69.39;99815.36;1680616;83;21033;-79
2022/10/04 10:26:23;;;;;;;1.82;1.17;;;;;;;12.04;68.69;99810.01;1701398;82;21476;-81
2022/10/04 10:29:12;;;;;;;3.83;1.87;;;;;;;12.13;67.84;99815.76;1700364;82;21511;-77
2022/10/04 10:31:54;;;;;;;2.30;1.62;;;;;;;12.18;66.81;99816.66;1718683;81;21096;-84
2022/10/04 10:34:42;;;;;;;2.83;1.70;;;;;;;12.22;66.53;99814.88;1681079;83;22080;-81
2022/10/04 10:37:16;;;;;;;3.17;1.40;;;;;;;12.35;65.90;99816.36;1719821;82;21046;-83
2022/10/04 10:40:28;;;;;;;1.92;1.40;;;;;;;12.39;64.32;99819.91;1682797;84;21051;-83
2022/10/04 10:43:41;;;;;;;2.42;1.10;;;;;;;12.41;64.36;99823.72;1691901;84;21050;-81
2022/10/04 10:46:23;;;;;;;2.70;1.25;;;;;;;12.42;63.65;99832.01;1698245;83;21011;-83
2022/10/04 10:49:26;;;;;;;3.27;1.02;;;;;;;12.43;63.64;99828.38;1708915;83;21753;-83
2022/10/04 10:52:34;;;;;;;2.77;1.15;;;;;;;12.52;63.38;99823.52;1706602;82;21031;-82
2022/10/04 10:55:28;;;;;;;2.08;1.52;;;;;;;12.68;63.04;99826.37;1693434;84;20967;-82
2022/10/04 10:58:22;;;;;;;2.27;1.55;;;;;;;12.79;61.53;99839.91;1699629;83;21067;-81
2022/10/04 11:01:03;;;;;;;2.25;1.52;;;;;;;12.81;60.90;99831.30;1700286;82;22422;-82
2022/10/04 11:03:51;;;;;;;1.70;1.20;;;;;;;12.78;60.77;99831.12;1685709;82;21791;-83
2022/10/04 11:06:57;;;;;;;6.47;2.30;;;;;;;12.76;60.89;99822.48;1716171;81;20948;-81
2022/10/04 11:09:28;;;;;;;3.25;1.20;;;;;;;12.80;61.14;99827.82;1716303;83;21039;-81
2022/10/04 11:12:37;;;;;;;2.30;1.42;;;;;;;12.89;60.47;99832.72;1751159;81;21027;-83
2022/10/04 11:15:44;;;;;;;3.77;1.00;;;;;;;12.97;60.56;99836.78;1691884;84;20950;-82
2022/10/04 11:19:07;;;;;;;2.58;1.20;;;;;;;13.00;59.99;99843.59;1669197;84;21947;-83
2022/10/04 11:22:12;;;;;;;3.65;1.45;;;;;;;12.96;59.64;99846.22;1676424;83;21092;-82
2022/10/04 11:25:03;;;;;;;4.10;2.20;;;;;;;12.86;59.92;99851.58;1664535;84;21486;-84
2022/10/04 11:28:06;;;;;;;3.77;1.70;;;;;;;12.77;60.26;99853.30;1680100;84;21054;-82
2022/10/04 11:31:25;;;;;;;3.22;1.50;;;;;;;12.72;60.23;99854.72;1681517;84;21051;-83
2022/10/04 11:34:24;;;;;;;3.72;1.60;;;;;;;12.62;60.90;99857.42;1681460;84;22347;-82
2022/10/04 11:37:08;;;;;;;1.67;1.20;;;;;;;12.59;61.69;99860.38;1672378;84;21023;-82
2022/10/04 11:40:02;;;;;;;3.20;1.40;;;;;;;12.63;61.75;99864.87;1669119;84;21027;-82
2022/10/04 11:43:00;;;;;;;1.70;1.30;;;;;;;12.67;61.39;99862.30;1663026;84;20983;-81
2022/10/04 11:46:04;;;;;;;1.67;1.10;;;;;;;12.70;61.25;99871.27;1663195;85;21103;-82
2022/10/04 11:49:02;;;;;;;1.85;1.10;;;;;;;12.73;60.83;99865.66;1626507;85;23390;-82
2022/10/04 11:52:21;;;;;;;4.72;1.62;;;;;;;12.78;60.88;99872.69;1664152;84;21122;-82
2022/10/04 11:55:07;;;;;;;4.65;1.60;;;;;;;12.85;60.96;99870.63;1657399;84;21011;-82
2022/10/04 11:57:44;;;;;;;2.02;1.40;;;;;;;12.96;60.51;99863.45;1638099;86;21462;-82
2022/10/04 12:00:17;;;;;;;2.55;1.30;;;;;;;13.02;60.36;99864.98;1657373;84;20999;-82
2022/10/04 12:03:09;;;;;;;2.10;1.20;;;;;;;13.08;60.27;99868.87;1659106;85;21900;-82
2022/10/04 12:05:55;;;;;;;1.57;1.00;;;;;;;13.14;59.92;99878.89;1660873;86;21032;-82
2022/10/04 12:08:37;;;;;;;2.92;1.40;;;;;;;13.12;58.92;99877.72;1639326;86;21044;-82
2022/10/04 12:12:35;;;;;;;3.05;1.12;;;;;;;13.09;58.40;99878.48;1660188;84;21130;-83
2022/10/04 12:14:12;;;;;;;5.30;1.80;;;;;;;13.09;58.56;99876.67;1656281;85;21008;-78
2022/10/04 12:17:07;;;;;;;4.70;1.55;;;;;;;13.11;58.94;99879.16;1668346;84;22217;-77
2022/10/04 12:20:20;;;;;;;3.30;1.80;;;;;;;13.14;58.58;99881.54;1651157;85;21485;-76
2022/10/04 12:23:16;;;;;;;2.75;1.90;;;;;;;13.18;58.48;99881.08;1711591;80;21069;-77
2022/10/04 12:26:20;;;;;;;2.08;1.40;;;;;;;13.22;58.14;99888.75;1692587;83;21077;-76
2022/10/04 12:29:02;;;;;;;2.17;1.40;;;;;;;13.24;56.18;99881.01;1724749;82;21022;-77
2022/10/04 12:31:34;;;;;;;2.33;1.55;;;;;;;13.26;55.98;99886.16;1696810;83;21906;-79
2022/10/04 12:34:20;;;;;;;3.58;1.67;;;;;;;13.26;55.48;99883.02;1721870;81;21159;-76
2022/10/04 12:37:13;;;;;;;2.27;1.30;;;;;;;13.28;55.19;99884.18;1718213;83;21008;-75
2022/10/04 12:40:01;;;;;;;2.15;1.37;;;;;;;13.32;54.65;99878.94;1719195;81;21529;-76
2022/10/04 12:42:51;;;;;;;1.92;1.10;;;;;;;13.31;54.32;99883.38;1740145;80;21512;-74
2022/10/04 12:45:49;;;;;;;2.95;1.27;;;;;;;13.27;54.15;99886.50;1723387;82;22629;-76
2022/10/04 12:49:01;;;;;;;2.72;1.70;;;;;;;13.20;53.95;99896.86;1720443;83;20996;-74
2022/10/04 12:51:58;;;;;;;4.53;2.37;;;;;;;13.15;54.32;99891.98;1721944;81;20995;-77
2022/10/04 12:54:39;;;;;;;6.05;2.98;;;;;;;13.10;54.88;99902.69;1712391;81;21074;-84
2022/10/04 12:57:44;;;;;;;7.22;4.50;;;;;;;13.04;55.15;99908.12;1713819;81;21022;-79
2022/10/04 13:00:21;;;;;;;5.78;4.17;;;;;;;13.00;55.28;99912.52;1709113;81;22378;-73
2022/10/04 13:03:14;;;;;;;7.50;4.28;;;;;;;12.97;55.18;99909.69;1735160;81;21050;-74
2022/10/04 13:06:01;;;;;;;6.25;3.58;;;;;;;12.95;55.63;99911.66;1726198;82;21085;-71
2022/10/04 13:08:44;;;;;;;4.10;2.75;;;;;;;12.97;55.81;99916.80;1720616;82;20988;-72